Time,TemperatureF,DewpointF,PressureIn,WindDirection,WindDirectionDegrees,WindSpeedMPH,WindSpeedGustMPH,Humidity,HourlyPrecipIn,Conditions,Clouds,dailyrainin,SolarRadiationWatts/m^2,SoftwareType,DateUTC
2013-03-08 00:02:00,43.0,28.0,-100.00,West,281,5.0,13.0,55,0.00,,,0.00,0.000000,,2013-03-08 05:02:00,
2013-03-08 00:12:00,43.0,28.0,-100.00,West,281,5.0,13.0,55,0.00,,,0.00,0.000000,,2013-03-08 05:12:00,
2013-03-08 00:22:00,43.0,28.0,-100.00,West,281,5.0,13.0,55,0.00,,,0.00,0.000000,,2013-03-08 05:22:00,
2013-03-08 00:52:00,43.0,28.0,-100.00,West,278,6.0,15.0,55,0.00,,,0.00,0.000000,,2013-03-08 05:52:00,
2013-03-08 01:02:00,43.0,28.0,-100.00,West,278,6.0,15.0,55,0.00,,,0.00,0.000000,,2013-03-08 06:02:00,
2013-03-08 01:11:00,43.0,28.0,-100.00,West,278,6.0,15.0,55,0.00,,,0.00,0.000000,,2013-03-08 06:11:00,
2013-03-08 01:22:00,43.0,28.0,-100.00,West,278,6.0,15.0,55,0.00,,,0.00,0.000000,,2013-03-08 06:22:00,
2013-03-08 01:52:00,42.0,27.0,-100.00,WNW,289,6.0,15.0,55,0.00,,,0.00,0.000000,,2013-03-08 06:52:00,
2013-03-08 02:01:00,42.0,27.0,-100.00,WNW,289,6.0,15.0,55,0.00,,,0.00,0.000000,,2013-03-08 07:01:00,
2013-03-08 02:11:00,42.0,27.0,-100.00,WNW,289,6.0,15.0,55,0.00,,,0.00,0.000000,,2013-03-08 07:11:00,
2013-03-08 02:22:00,42.0,27.0,-100.00,WNW,289,6.0,15.0,55,0.00,,,0.00,0.000000,,2013-03-08 07:22:00,
2013-03-08 02:52:00,41.0,26.0,-100.00,WNW,289,6.0,17.0,55,0.00,,,0.00,0.000000,,2013-03-08 07:52:00,
2013-03-08 03:02:00,41.0,26.0,-100.00,WNW,289,6.0,17.0,55,0.00,,,0.00,0.000000,,2013-03-08 08:02:00,
2013-03-08 03:11:00,41.0,26.0,-100.00,WNW,289,6.0,17.0,55,0.00,,,0.00,0.000000,,2013-03-08 08:11:00,
2013-03-08 03:22:00,41.0,26.0,-100.00,WNW,289,6.0,17.0,55,0.00,,,0.00,0.000000,,2013-03-08 08:22:00,
2013-03-08 03:52:00,41.0,27.0,-100.00,WNW,289,7.0,14.0,56,0.00,,,0.00,0.000000,,2013-03-08 08:52:00,
2013-03-08 04:03:00,41.0,27.0,-100.00,WNW,289,7.0,14.0,56,0.00,,,0.00,0.000000,,2013-03-08 09:03:00,
2013-03-08 04:11:00,41.0,27.0,-100.00,WNW,289,7.0,14.0,56,0.00,,,0.00,0.000000,,2013-03-08 09:11:00,
2013-03-08 04:22:00,41.0,27.0,-100.00,WNW,289,7.0,14.0,56,0.00,,,0.00,0.000000,,2013-03-08 09:22:00,
2013-03-08 04:52:00,41.0,27.0,-100.00,WNW,286,7.0,17.0,57,0.00,,,0.00,0.000000,,2013-03-08 09:52:00,
2013-03-08 05:01:00,41.0,27.0,-100.00,WNW,286,7.0,17.0,57,0.00,,,0.00,0.000000,,2013-03-08 10:01:00,
2013-03-08 05:11:00,41.0,27.0,-100.00,WNW,286,7.0,17.0,57,0.00,,,0.00,0.000000,,2013-03-08 10:11:00,
2013-03-08 05:21:00,41.0,27.0,-100.00,WNW,286,7.0,17.0,57,0.00,,,0.00,0.000000,,2013-03-08 10:21:00,
2013-03-08 05:52:00,40.0,26.0,-100.00,WNW,285,5.0,17.0,58,0.00,,,0.00,0.000000,,2013-03-08 10:52:00,
2013-03-08 06:01:00,40.0,26.0,-100.00,WNW,285,5.0,17.0,58,0.00,,,0.00,0.000000,,2013-03-08 11:01:00,
2013-03-08 06:11:00,40.0,26.0,-100.00,WNW,285,5.0,17.0,58,0.00,,,0.00,0.000000,,2013-03-08 11:11:00,
2013-03-08 06:22:00,40.0,26.0,-100.00,WNW,285,5.0,17.0,58,0.00,,,0.00,0.000000,,2013-03-08 11:22:00,
2013-03-08 06:52:00,39.0,26.0,-100.00,WNW,284,5.0,16.0,59,0.00,,,0.00,0.000000,,2013-03-08 11:52:00,
2013-03-08 07:02:00,39.0,26.0,-100.00,WNW,284,5.0,16.0,59,0.00,,,0.00,0.000000,,2013-03-08 12:02:00,
2013-03-08 07:11:00,39.0,26.0,-100.00,WNW,284,5.0,16.0,59,0.00,,,0.00,0.000000,,2013-03-08 12:11:00,
2013-03-08 07:22:00,39.0,26.0,-100.00,WNW,284,5.0,16.0,59,0.00,,,0.00,0.000000,,2013-03-08 12:22:00,
2013-03-08 07:53:00,42.0,28.0,-100.00,WNW,299,7.0,16.0,57,0.00,,,0.00,45.000000,,2013-03-08 12:53:00,
2013-03-08 08:02:00,42.0,28.0,-100.00,WNW,299,7.0,16.0,57,0.00,,,0.00,45.000000,,2013-03-08 13:02:00,
2013-03-08 08:12:00,42.0,28.0,-100.00,WNW,299,7.0,16.0,57,0.00,,,0.00,45.000000,,2013-03-08 13:12:00,
2013-03-08 08:22:00,42.0,28.0,-100.00,WNW,299,7.0,16.0,57,0.00,,,0.00,45.000000,,2013-03-08 13:22:00,
2013-03-08 08:52:00,43.0,28.0,-100.00,NW,315,7.0,17.0,56,0.00,,,0.00,145.000000,,2013-03-08 13:52:00,
2013-03-08 09:03:00,43.0,28.0,-100.00,NW,315,7.0,17.0,56,0.00,,,0.00,145.000000,,2013-03-08 14:03:00,
2013-03-08 09:12:00,43.0,28.0,-100.00,NW,315,7.0,17.0,56,0.00,,,0.00,145.000000,,2013-03-08 14:12:00,
2013-03-08 09:22:00,43.0,28.0,-100.00,NW,315,7.0,17.0,56,0.00,,,0.00,145.000000,,2013-03-08 14:22:00,
2013-03-08 09:53:00,45.0,29.0,-100.00,NW,318,7.0,21.0,53,0.00,,,0.00,131.000000,,2013-03-08 14:53:00,
2013-03-08 10:03:00,45.0,29.0,-100.00,NW,318,7.0,21.0,53,0.00,,,0.00,131.000000,,2013-03-08 15:03:00,
2013-03-08 10:12:00,45.0,29.0,-100.00,NW,318,7.0,21.0,53,0.00,,,0.00,131.000000,,2013-03-08 15:12:00,
2013-03-08 10:22:00,45.0,29.0,-100.00,NW,318,7.0,21.0,53,0.00,,,0.00,131.000000,,2013-03-08 15:22:00,
2013-03-08 10:53:00,47.0,30.0,-100.00,WNW,301,8.0,19.0,51,0.00,,,0.00,623.000000,,2013-03-08 15:53:00,
2013-03-08 11:02:00,47.0,30.0,-100.00,WNW,301,8.0,19.0,51,0.00,,,0.00,623.000000,,2013-03-08 16:02:00,
2013-03-08 11:12:00,47.0,30.0,-100.00,WNW,301,8.0,19.0,51,0.00,,,0.00,623.000000,,2013-03-08 16:12:00,
2013-03-08 11:22:00,47.0,30.0,-100.00,WNW,301,8.0,19.0,51,0.00,,,0.00,623.000000,,2013-03-08 16:22:00,
2013-03-08 11:52:00,49.0,31.0,-100.00,NW,311,8.0,20.0,49,0.00,,,0.00,781.000000,,2013-03-08 16:52:00,
2013-03-08 12:03:00,49.0,31.0,-100.00,NW,311,8.0,20.0,49,0.00,,,0.00,781.000000,,2013-03-08 17:03:00,
2013-03-08 12:12:00,49.0,31.0,-100.00,NW,311,8.0,20.0,49,0.00,,,0.00,781.000000,,2013-03-08 17:12:00,
2013-03-08 12:21:00,49.0,31.0,-100.00,NW,311,8.0,20.0,49,0.00,,,0.00,781.000000,,2013-03-08 17:21:00,
2013-03-08 12:52:00,52.0,32.0,-100.00,NW,318,6.0,20.0,47,0.00,,,0.00,833.000000,,2013-03-08 17:52:00,
2013-03-08 13:02:00,52.0,32.0,-100.00,NW,318,6.0,20.0,47,0.00,,,0.00,833.000000,,2013-03-08 18:02:00,
2013-03-08 13:12:00,52.0,32.0,-100.00,NW,318,6.0,20.0,47,0.00,,,0.00,833.000000,,2013-03-08 18:12:00,
2013-03-08 13:22:00,52.0,32.0,-100.00,NW,318,6.0,20.0,47,0.00,,,0.00,833.000000,,2013-03-08 18:22:00,
2013-03-08 13:52:00,52.0,32.0,-100.00,NW,311,7.0,18.0,47,0.00,,,0.00,805.000000,,2013-03-08 18:52:00,
2013-03-08 14:02:00,52.0,32.0,-100.00,NW,311,7.0,18.0,47,0.00,,,0.00,805.000000,,2013-03-08 19:02:00,
2013-03-08 14:11:00,52.0,32.0,-100.00,NW,311,7.0,18.0,47,0.00,,,0.00,805.000000,,2013-03-08 19:11:00,
2013-03-08 14:22:00,52.0,32.0,-100.00,NW,311,7.0,18.0,47,0.00,,,0.00,805.000000,,2013-03-08 19:22:00,
2013-03-08 14:52:00,52.0,32.0,-100.00,WNW,300,7.0,18.0,47,0.00,,,0.00,760.000000,,2013-03-08 19:52:00,
2013-03-08 15:02:00,52.0,32.0,-100.00,WNW,300,7.0,18.0,47,0.00,,,0.00,760.000000,,2013-03-08 20:02:00,
2013-03-08 15:11:00,52.0,32.0,-100.00,WNW,300,7.0,18.0,47,0.00,,,0.00,760.000000,,2013-03-08 20:11:00,
2013-03-08 15:22:00,52.0,32.0,-100.00,WNW,300,7.0,18.0,47,0.00,,,0.00,760.000000,,2013-03-08 20:22:00,
2013-03-08 15:53:00,53.0,34.0,-100.00,NW,311,7.0,20.0,48,0.00,,,0.00,625.000000,,2013-03-08 20:53:00,
2013-03-08 16:02:00,53.0,34.0,-100.00,NW,311,7.0,20.0,48,0.00,,,0.00,625.000000,,2013-03-08 21:02:00,
2013-03-08 16:12:00,53.0,34.0,-100.00,NW,311,7.0,20.0,48,0.00,,,0.00,625.000000,,2013-03-08 21:12:00,
2013-03-08 16:22:00,53.0,34.0,-100.00,NW,311,7.0,20.0,48,0.00,,,0.00,625.000000,,2013-03-08 21:22:00,
2013-03-08 16:52:00,53.0,34.0,-100.00,NW,306,5.0,16.0,48,0.00,,,0.00,456.000000,,2013-03-08 21:52:00,
2013-03-08 17:02:00,53.0,34.0,-100.00,NW,306,5.0,16.0,48,0.00,,,0.00,456.000000,,2013-03-08 22:02:00,
2013-03-08 17:12:00,53.0,34.0,-100.00,NW,306,5.0,16.0,48,0.00,,,0.00,456.000000,,2013-03-08 22:12:00,
2013-03-08 17:22:00,53.0,34.0,-100.00,NW,306,5.0,16.0,48,0.00,,,0.00,456.000000,,2013-03-08 22:22:00,
2013-03-08 17:53:00,49.0,33.0,-100.00,WNW,283,4.0,11.0,53,0.00,,,0.00,193.000000,,2013-03-08 22:53:00,
2013-03-08 18:02:00,49.0,33.0,-100.00,WNW,283,4.0,11.0,53,0.00,,,0.00,193.000000,,2013-03-08 23:02:00,
2013-03-08 18:12:00,49.0,33.0,-100.00,WNW,283,4.0,11.0,53,0.00,,,0.00,193.000000,,2013-03-08 23:12:00,
2013-03-08 18:22:00,49.0,33.0,-100.00,WNW,283,4.0,11.0,53,0.00,,,0.00,193.000000,,2013-03-08 23:22:00,
2013-03-08 18:53:00,48.0,33.0,-100.00,WNW,290,4.0,13.0,56,0.00,,,0.00,13.000000,,2013-03-08 23:53:00,
2013-03-08 19:02:00,48.0,33.0,-100.00,WNW,290,4.0,13.0,56,0.00,,,0.00,13.000000,,2013-03-09 00:02:00,
2013-03-08 19:12:00,48.0,33.0,-100.00,WNW,290,4.0,13.0,56,0.00,,,0.00,13.000000,,2013-03-09 00:12:00,
2013-03-08 19:22:00,48.0,33.0,-100.00,WNW,290,4.0,13.0,56,0.00,,,0.00,13.000000,,2013-03-09 00:22:00,
2013-03-08 19:52:00,47.0,31.0,-100.00,WNW,285,5.0,10.0,54,0.00,,,0.00,0.000000,,2013-03-09 00:52:00,
2013-03-08 20:02:00,47.0,31.0,-100.00,WNW,285,5.0,10.0,54,0.00,,,0.00,0.000000,,2013-03-09 01:02:00,
2013-03-08 20:12:00,47.0,31.0,-100.00,WNW,285,5.0,10.0,54,0.00,,,0.00,0.000000,,2013-03-09 01:12:00,
2013-03-08 20:22:00,47.0,31.0,-100.00,WNW,285,5.0,10.0,54,0.00,,,0.00,0.000000,,2013-03-09 01:22:00,
2013-03-08 22:52:00,45.0,30.0,-100.00,WNW,302,5.0,14.0,56,-99.99,,,0.00,0.000000,,2013-03-09 03:52:00,
2013-03-08 23:01:00,45.0,30.0,-100.00,WNW,302,5.0,14.0,56,-99.99,,,0.00,0.000000,,2013-03-09 04:01:00,
2013-03-08 23:11:00,45.0,30.0,-100.00,WNW,302,5.0,14.0,56,-99.99,,,0.00,0.000000,,2013-03-09 04:11:00,
2013-03-08 23:22:00,45.0,30.0,-100.00,WNW,302,5.0,14.0,56,-99.99,,,0.00,0.000000,,2013-03-09 04:22:00,
2013-03-08 23:52:00,45.0,31.0,-100.00,NW,310,6.0,17.0,57,0.00,,,0.00,0.000000,,2013-03-09 04:52:00,